Time;durP1;ratioP1;P1;durP2;ratioP2;P2;SDS_P1;SDS_P2;PMS_P1;PMS_P2;Temp;Humidity;BMP_temperature;BMP_pressure;BME280_temperature;BME280_humidity;BME280_pressure;Samples;Min_cycle;Max_cycle;Signal;HPM_P1;HPM_P2
2021/11/15 00:01:13;;;;;;;238.65;109.17;;;;;;;-0.45;78.36;95404.40;1702047;83;21064;-65
2021/11/15 00:03:38;;;;;;;218.12;105.00;;;;;;;-0.47;78.40;95407.45;1681065;84;21077;-66
2021/11/15 00:06:06;;;;;;;216.45;103.80;;;;;;;-0.47;78.43;95407.45;1687870;83;20981;-66
2021/11/15 00:08:32;;;;;;;218.75;105.15;;;;;;;-0.44;78.37;95416.18;1680032;84;21012;-66
2021/11/15 00:10:59;;;;;;;195.30;93.62;;;;;;;-0.40;78.24;95417.60;1682825;83;21826;-65
2021/11/15 00:13:26;;;;;;;198.55;93.67;;;;;;;-0.38;78.14;95427.48;1695224;84;21406;-67
2021/11/15 00:15:54;;;;;;;191.68;91.32;;;;;;;-0.39;78.14;95431.32;1693396;84;20966;-65
2021/11/15 00:18:20;;;;;;;177.40;86.28;;;;;;;-0.36;78.16;95423.84;1676646;83;21033;-66
2021/11/15 00:20:49;;;;;;;167.93;86.70;;;;;;;-0.32;78.15;95421.41;1697878;84;21529;-66
2021/11/15 00:23:17;;;;;;;179.05;87.37;;;;;;;-0.26;78.04;95430.00;1685041;83;21069;-65
2021/11/15 00:25:43;;;;;;;193.37;86.35;;;;;;;-0.25;77.75;95424.80;1699725;83;21098;-65
2021/11/15 00:28:12;;;;;;;178.02;86.10;;;;;;;-0.28;77.85;95434.41;1705296;83;21064;-65
2021/11/15 00:30:38;;;;;;;173.72;83.90;;;;;;;-0.29;77.69;95436.11;1698158;83;21080;-66
2021/11/15 00:33:06;;;;;;;173.17;85.80;;;;;;;-0.34;77.67;95439.12;1691565;84;21001;-66
2021/11/15 00:35:33;;;;;;;168.55;81.35;;;;;;;-0.34;77.78;95439.12;1687202;83;21071;-67
2021/11/15 00:37:59;;;;;;;154.95;74.58;;;;;;;-0.33;77.76;95446.09;1679117;83;20985;-66
2021/11/15 00:40:27;;;;;;;153.85;76.92;;;;;;;-0.35;77.42;95440.27;1701086;83;20978;-66
2021/11/15 00:42:54;;;;;;;151.85;70.05;;;;;;;-0.40;77.43;95440.57;1699513;83;21457;-68
2021/11/15 00:45:21;;;;;;;175.87;83.60;;;;;;;-0.38;77.75;95441.75;1700801;83;21286;-67
2021/11/15 00:47:47;;;;;;;158.97;78.00;;;;;;;-0.37;77.94;95438.50;1694391;83;21197;-65
2021/11/15 00:50:17;;;;;;;150.95;69.87;;;;;;;-0.31;78.09;95447.85;1673424;83;21128;-66
2021/11/15 00:52:45;;;;;;;152.35;76.05;;;;;;;-0.27;77.75;95445.98;1679138;83;21426;-66
2021/11/15 00:55:13;;;;;;;148.50;68.83;;;;;;;-0.30;77.37;95454.82;1694868;83;21036;-66
2021/11/15 00:57:40;;;;;;;121.72;65.80;;;;;;;-0.41;77.26;95453.29;1693509;83;21035;-66
2021/11/15 01:00:10;;;;;;;126.78;61.42;;;;;;;-0.55;77.04;95453.03;1681484;83;21904;-66
2021/11/15 01:02:37;;;;;;;129.50;65.20;;;;;;;-0.71;77.18;95454.29;1692366;84;21065;-63
2021/11/15 01:05:05;;;;;;;133.18;63.92;;;;;;;-0.87;77.40;95438.75;1688324;84;21013;-67
2021/11/15 01:07:31;;;;;;;124.92;65.25;;;;;;;-0.94;77.90;95450.77;1693752;83;21064;-66
2021/11/15 01:09:58;;;;;;;137.95;67.45;;;;;;;-0.93;78.04;95450.98;1697875;83;21406;-63
2021/11/15 01:12:24;;;;;;;125.42;65.80;;;;;;;-0.94;78.16;95453.48;1693400;84;21182;-66
2021/11/15 01:14:51;;;;;;;140.97;67.03;;;;;;;-0.90;78.28;95458.37;1683987;84;21068;-65
2021/11/15 01:17:19;;;;;;;147.75;70.47;;;;;;;-0.93;78.33;95454.45;1688903;83;21068;-66
2021/11/15 01:19:46;;;;;;;158.93;74.05;;;;;;;-0.93;78.45;95460.44;1695553;83;20965;-65
2021/11/15 01:22:12;;;;;;;158.20;74.97;;;;;;;-0.95;78.29;95457.31;1682186;84;21021;-67
2021/11/15 01:24:39;;;;;;;146.85;74.32;;;;;;;-1.00;78.40;95458.37;1696382;83;21165;-66
2021/11/15 01:27:06;;;;;;;143.47;67.37;;;;;;;-0.98;78.65;95466.14;1683021;83;21513;-66
2021/11/15 01:29:32;;;;;;;142.05;70.80;;;;;;;-0.96;78.55;95465.20;1696967;84;21568;-66
2021/11/15 01:32:00;;;;;;;152.00;69.20;;;;;;;-0.92;78.55;95471.45;1701304;84;21429;-65
2021/11/15 01:34:29;;;;;;;139.30;65.15;;;;;;;-0.91;78.51;95471.66;1696476;83;20989;-67
2021/11/15 01:36:55;;;;;;;154.55;71.12;;;;;;;-0.85;78.60;95464.82;1670233;84;21164;-67
2021/11/15 01:39:23;;;;;;;129.23;63.30;;;;;;;-0.80;78.52;95461.27;1689894;84;21513;-66
2021/11/15 01:41:51;;;;;;;137.05;68.28;;;;;;;-0.72;78.63;95463.53;1695337;84;21092;-66
2021/11/15 01:44:18;;;;;;;160.67;76.97;;;;;;;-0.63;78.66;95460.05;1685041;83;21009;-65
2021/11/15 01:46:44;;;;;;;167.20;80.47;;;;;;;-0.55;78.48;95457.67;1692310;83;20965;-66
2021/11/15 01:49:12;;;;;;;153.57;77.78;;;;;;;-0.49;78.39;95465.13;1698940;84;21069;-65
2021/11/15 01:51:39;;;;;;;137.40;67.82;;;;;;;-0.45;78.07;95470.61;1697089;83;21123;-61
2021/11/15 01:54:06;;;;;;;146.35;71.10;;;;;;;-0.39;78.06;95469.16;1683915;83;20984;-66
2021/11/15 01:56:33;;;;;;;145.30;68.15;;;;;;;-0.40;77.88;95470.30;1677730;84;21504;-66
2021/11/15 01:59:02;;;;;;;140.57;67.47;;;;;;;-0.38;78.07;95472.07;1680590;83;21068;-66
2021/11/15 02:01:30;;;;;;;146.35;69.22;;;;;;;-0.29;78.18;95473.95;1700110;83;21125;-65
2021/11/15 02:03:57;;;;;;;139.20;66.95;;;;;;;-0.22;78.05;95470.03;1698353;84;21052;-66
2021/11/15 02:06:25;;;;;;;134.22;65.25;;;;;;;-0.16;77.97;95471.28;1694358;83;21025;-65
2021/11/15 02:08:52;;;;;;;121.45;58.85;;;;;;;-0.07;78.14;95471.83;1688104;83;21037;-66
2021/11/15 02:11:19;;;;;;;130.52;60.45;;;;;;;0.03;78.02;95476.83;1709893;83;21440;-65
2021/11/15 02:13:46;;;;;;;119.70;56.20;;;;;;;0.08;77.85;95479.22;1697190;84;21164;-66
2021/11/15 02:16:13;;;;;;;113.60;55.00;;;;;;;0.08;77.94;95479.22;1680810;83;21072;-66
2021/11/15 02:18:42;;;;;;;100.90;49.67;;;;;;;0.05;77.95;95484.00;1703499;83;20977;-67
2021/11/15 02:21:09;;;;;;;113.50;54.18;;;;;;;0.06;78.16;95486.15;1695250;83;21091;-66
2021/11/15 02:23:39;;;;;;;116.65;54.18;;;;;;;0.06;78.24;95478.80;1678501;83;20981;-67
2021/11/15 02:26:07;;;;;;;121.50;54.77;;;;;;;0.03;78.18;95486.29;1690777;83;21136;-67
2021/11/15 02:28:38;;;;;;;124.70;58.23;;;;;;;0.01;78.28;95493.98;1697765;83;20984;-66
2021/11/15 02:31:05;;;;;;;151.18;66.35;;;;;;;-0.01;78.35;95485.45;1690074;83;20975;-66
2021/11/15 02:33:31;;;;;;;134.10;65.45;;;;;;;-0.02;78.73;95495.86;1697387;84;21100;-67
2021/11/15 02:35:59;;;;;;;125.18;58.28;;;;;;;0.00;78.62;95488.95;1699228;84;20997;-67
2021/11/15 02:38:26;;;;;;;122.28;56.35;;;;;;;0.03;78.78;95491.70;1687445;83;21784;-66
2021/11/15 02:40:53;;;;;;;125.10;61.45;;;;;;;0.08;78.91;95490.03;1679197;84;20992;-67
2021/11/15 02:43:20;;;;;;;116.97;54.35;;;;;;;0.15;79.50;95491.52;1682142;84;21112;-67
2021/11/15 02:45:47;;;;;;;122.67;59.70;;;;;;;0.35;79.86;95497.60;1691107;83;21597;-66
2021/11/15 02:48:21;;;;;;;134.60;60.83;;;;;;;0.49;79.31;95491.84;1685502;84;21000;-67
2021/11/15 02:50:48;;;;;;;102.32;49.33;;;;;;;0.60;79.43;95497.41;1696001;83;21056;-68
2021/11/15 02:53:14;;;;;;;98.35;51.05;;;;;;;0.77;79.50;95495.52;1693716;83;21036;-65
2021/11/15 02:55:43;;;;;;;73.00;37.60;;;;;;;0.90;79.39;95504.96;1686229;84;21151;-68
2021/11/15 02:58:10;;;;;;;56.63;31.87;;;;;;;1.02;79.03;95504.19;1696312;84;21099;-67
2021/11/15 03:00:51;;;;;;;41.92;26.17;;;;;;;0.99;78.48;95512.25;1689737;83;20981;-66
2021/11/15 03:03:17;;;;;;;91.53;42.98;;;;;;;0.91;78.31;95510.02;1687008;84;21819;-66
2021/11/15 03:05:48;;;;;;;103.30;50.00;;;;;;;0.82;78.23;95510.89;1689588;83;20989;-66
2021/11/15 03:08:15;;;;;;;79.32;40.88;;;;;;;0.73;78.31;95516.33;1663000;83;21044;-65
2021/11/15 03:10:43;;;;;;;75.97;37.95;;;;;;;0.66;78.34;95526.52;1680183;83;21504;-65
2021/11/15 03:13:11;;;;;;;68.65;35.43;;;;;;;0.60;78.37;95519.83;1692110;83;21072;-66
2021/11/15 03:15:41;;;;;;;48.30;27.17;;;;;;;0.54;78.57;95526.71;1692179;84;21806;-67
2021/11/15 03:18:14;;;;;;;61.28;33.48;;;;;;;0.49;78.57;95529.73;1684232;84;21218;-66
2021/11/15 03:20:46;;;;;;;71.10;36.13;;;;;;;0.42;78.70;95535.61;1693323;83;21037;-65
2021/11/15 03:23:16;;;;;;;55.30;29.60;;;;;;;0.33;78.98;95531.80;1682382;84;21915;-67
2021/11/15 03:25:43;;;;;;;51.55;27.52;;;;;;;0.32;79.05;95529.45;1690094;83;21787;-66
2021/11/15 03:28:11;;;;;;;51.88;29.30;;;;;;;0.23;79.12;95529.70;1704996;83;21846;-66
2021/11/15 03:30:38;;;;;;;41.75;25.00;;;;;;;0.23;79.45;95544.58;1692639;83;21065;-66
2021/11/15 03:33:07;;;;;;;40.58;23.65;;;;;;;0.31;79.81;95539.51;1695196;83;21081;-65
2021/11/15 03:35:34;;;;;;;39.45;23.83;;;;;;;0.38;79.82;95547.73;1661317;84;21085;-66
2021/11/15 03:38:00;;;;;;;39.83;25.37;;;;;;;0.41;79.58;95540.81;1684375;83;21033;-67
2021/11/15 03:40:27;;;;;;;41.00;26.55;;;;;;;0.40;79.68;95544.08;1686678;84;21474;-66
2021/11/15 03:42:58;;;;;;;47.05;27.73;;;;;;;0.45;79.54;95547.83;1665062;83;21107;-65
2021/11/15 03:45:27;;;;;;;78.87;43.17;;;;;;;0.48;79.59;95547.13;1680373;84;20966;-65
2021/11/15 03:47:54;;;;;;;93.17;47.40;;;;;;;0.53;79.54;95549.52;1680452;84;21056;-66
2021/11/15 03:50:20;;;;;;;91.00;46.13;;;;;;;0.58;79.32;95547.08;1687085;83;21016;-66
2021/11/15 03:52:49;;;;;;;129.30;63.98;;;;;;;0.55;79.10;95552.63;1683786;83;21159;-66
2021/11/15 03:55:18;;;;;;;126.85;64.40;;;;;;;0.46;79.17;95552.13;1693865;83;21040;-67
2021/11/15 03:57:44;;;;;;;136.50;68.12;;;;;;;0.42;79.33;95556.67;1690690;83;21007;-67
2021/11/15 04:00:18;;;;;;;139.10;71.47;;;;;;;0.40;79.54;95557.61;1695356;83;21283;-66
2021/11/15 04:02:50;;;;;;;141.57;70.80;;;;;;;0.46;79.95;95564.30;1702576;84;21453;-67
2021/11/15 04:05:21;;;;;;;89.28;47.78;;;;;;;0.63;80.46;95567.83;1697910;84;21163;-67
2021/11/15 04:07:49;;;;;;;70.45;39.88;;;;;;;0.74;79.79;95574.20;1644926;83;20993;-67
2021/11/15 04:10:18;;;;;;;70.65;39.05;;;;;;;0.71;79.36;95566.02;1683693;83;21011;-66
2021/11/15 04:12:44;;;;;;;69.80;38.07;;;;;;;0.69;79.35;95575.87;1666301;83;21008;-67
2021/11/15 04:15:12;;;;;;;59.85;34.55;;;;;;;0.72;79.24;95582.46;1690980;84;21035;-67
2021/11/15 04:17:39;;;;;;;64.67;33.78;;;;;;;0.75;79.22;95578.46;1681098;84;21151;-64
2021/11/15 04:20:08;;;;;;;61.53;33.20;;;;;;;0.76;79.03;95585.44;1697058;84;21490;-67
2021/11/15 04:22:38;;;;;;;74.27;39.70;;;;;;;0.75;79.12;95589.30;1692978;84;21016;-67
2021/11/15 04:25:06;;;;;;;85.70;43.17;;;;;;;0.80;79.05;95586.27;1676606;84;21584;-66
2021/11/15 04:27:34;;;;;;;107.80;57.35;;;;;;;0.84;79.33;95580.35;1693392;83;20973;-66
2021/11/15 04:30:01;;;;;;;102.15;55.08;;;;;;;0.97;79.49;95586.33;1687203;83;21150;-66
2021/11/15 04:32:28;;;;;;;101.62;55.98;;;;;;;1.07;79.25;95588.39;1657950;84;21108;-67
2021/11/15 04:34:55;;;;;;;89.10;49.33;;;;;;;1.16;79.04;95590.28;1695353;83;20953;-65
2021/11/15 04:37:21;;;;;;;91.67;48.65;;;;;;;1.24;78.86;95594.07;1680314;83;21199;-67
2021/11/15 04:39:49;;;;;;;85.50;45.58;;;;;;;1.26;78.58;95599.91;1694345;83;20945;-67
2021/11/15 04:42:16;;;;;;;75.15;43.68;;;;;;;1.22;77.91;95600.44;1677900;84;21163;-68
2021/11/15 04:44:42;;;;;;;62.17;35.83;;;;;;;1.09;77.85;95602.35;1691687;84;21473;-68
2021/11/15 04:47:09;;;;;;;69.10;38.83;;;;;;;1.02;77.74;95607.68;1701395;83;20954;-67
2021/11/15 04:49:36;;;;;;;69.97;38.85;;;;;;;0.90;77.47;95611.39;1685065;83;21065;-67
2021/11/15 04:52:05;;;;;;;62.35;38.98;;;;;;;0.79;77.73;95608.31;1679890;84;21155;-68
2021/11/15 04:54:32;;;;;;;54.75;30.72;;;;;;;0.75;78.00;95607.48;1701167;83;21151;-67
2021/11/15 04:56:59;;;;;;;50.15;27.93;;;;;;;0.76;77.90;95612.52;1678532;84;21100;-67
2021/11/15 04:59:26;;;;;;;49.73;27.60;;;;;;;0.73;78.03;95615.16;1679645;84;21084;-67
2021/11/15 05:01:52;;;;;;;59.40;31.23;;;;;;;0.70;78.07;95618.05;1680583;83;21021;-67
2021/11/15 05:04:19;;;;;;;57.48;31.23;;;;;;;0.69;78.35;95620.55;1684472;83;20956;-67
2021/11/15 05:06:46;;;;;;;58.05;30.82;;;;;;;0.71;78.48;95620.95;1683570;83;21842;-67
2021/11/15 05:09:13;;;;;;;50.55;28.60;;;;;;;0.76;78.57;95622.58;1687520;83;21122;-68
2021/11/15 05:11:40;;;;;;;57.38;31.55;;;;;;;0.80;78.77;95624.18;1691560;83;21571;-67
2021/11/15 05:14:07;;;;;;;61.75;30.37;;;;;;;0.84;79.00;95616.12;1685390;83;21557;-66
2021/11/15 05:16:33;;;;;;;52.00;29.67;;;;;;;0.89;78.87;95612.53;1694540;83;21080;-67
2021/11/15 05:19:02;;;;;;;49.35;28.47;;;;;;;0.91;78.75;95616.21;1699163;83;21169;-66
2021/11/15 05:21:30;;;;;;;43.78;24.85;;;;;;;0.88;78.83;95613.68;1702365;83;21394;-67
2021/11/15 05:23:57;;;;;;;41.75;24.65;;;;;;;0.91;78.83;95622.42;1681262;84;21441;-66
2021/11/15 05:26:24;;;;;;;44.03;28.42;;;;;;;0.91;78.69;95616.21;1680181;83;21009;-67
2021/11/15 05:28:51;;;;;;;46.77;27.15;;;;;;;0.93;78.85;95617.42;1701858;83;21119;-66
2021/11/15 05:31:18;;;;;;;52.27;28.17;;;;;;;1.01;78.70;95622.38;1656258;85;21146;-67
2021/11/15 05:33:45;;;;;;;49.73;27.42;;;;;;;1.03;78.69;95639.05;1680072;84;21138;-66
2021/11/15 05:36:11;;;;;;;54.18;30.02;;;;;;;1.05;78.56;95637.55;1685282;83;21041;-67
2021/11/15 05:38:37;;;;;;;53.38;29.32;;;;;;;1.01;78.52;95646.20;1706764;83;21005;-66
2021/11/15 05:41:04;;;;;;;61.83;33.40;;;;;;;1.01;78.68;95640.78;1672423;84;21122;-67
2021/11/15 05:43:30;;;;;;;64.05;37.40;;;;;;;1.03;78.75;95651.23;1698430;84;21160;-67
2021/11/15 05:45:57;;;;;;;78.05;37.48;;;;;;;1.12;78.83;95651.19;1697558;83;20970;-67
2021/11/15 05:48:23;;;;;;;63.38;37.15;;;;;;;1.21;78.65;95662.55;1694889;83;21503;-67
2021/11/15 05:50:50;;;;;;;86.40;46.58;;;;;;;1.26;78.26;95663.59;1681419;83;21652;-67
2021/11/15 05:53:16;;;;;;;74.50;41.65;;;;;;;1.26;78.19;95666.30;1672893;84;21005;-68
2021/11/15 05:55:43;;;;;;;81.02;43.90;;;;;;;1.31;78.27;95667.33;1679051;84;21139;-68
2021/11/15 05:58:10;;;;;;;97.97;46.65;;;;;;;1.35;77.93;95666.80;1701936;84;21013;-69
2021/11/15 06:00:37;;;;;;;83.35;44.95;;;;;;;1.48;78.46;95672.22;1669094;83;21021;-68
2021/11/15 06:03:03;;;;;;;156.25;72.45;;;;;;;1.64;77.85;95670.12;1656620;84;21076;-68
2021/11/15 06:05:30;;;;;;;239.40;103.12;;;;;;;1.66;77.48;95681.38;1678652;83;21032;-64
2021/11/15 06:07:57;;;;;;;186.65;82.15;;;;;;;1.69;77.40;95683.34;1647536;85;21140;-67
2021/11/15 06:10:24;;;;;;;132.93;67.17;;;;;;;1.69;77.09;95681.23;1687513;83;21107;-66
2021/11/15 06:12:52;;;;;;;123.05;63.58;;;;;;;1.72;76.94;95686.67;1685280;83;21145;-68
2021/11/15 06:15:20;;;;;;;112.37;59.08;;;;;;;1.76;76.85;95691.59;1699066;83;21005;-67
2021/11/15 06:17:46;;;;;;;122.82;59.45;;;;;;;1.81;76.71;95688.55;1692748;83;21139;-69
2021/11/15 06:20:14;;;;;;;120.37;59.98;;;;;;;1.83;76.69;95684.34;1683064;83;21151;-59
2021/11/15 06:22:41;;;;;;;114.57;60.60;;;;;;;1.90;76.70;95692.55;1690463;82;21184;-70
2021/11/15 06:25:09;;;;;;;98.55;54.13;;;;;;;1.94;76.62;95692.02;1694818;82;20994;-68
2021/11/15 06:27:37;;;;;;;97.70;53.90;;;;;;;2.00;76.49;95691.12;1702478;83;21064;-66
2021/11/15 06:30:05;;;;;;;87.15;50.08;;;;;;;2.10;76.87;95691.24;1700592;83;21485;-69
2021/11/15 06:32:33;;;;;;;119.60;61.70;;;;;;;2.28;76.53;95696.30;1699264;83;21849;-63
2021/11/15 06:34:59;;;;;;;159.78;87.12;;;;;;;2.33;76.20;95708.77;1696277;83;20978;-67
2021/11/15 06:37:26;;;;;;;153.85;82.12;;;;;;;2.39;76.13;95696.41;1699689;83;20993;-63
2021/11/15 06:39:52;;;;;;;144.07;81.32;;;;;;;2.51;76.10;95707.02;1696408;83;20984;-62
2021/11/15 06:42:19;;;;;;;149.95;84.83;;;;;;;2.62;75.89;95698.39;1687670;82;21166;-60
2021/11/15 06:44:46;;;;;;;136.15;73.07;;;;;;;2.75;75.65;95699.69;1690962;83;21230;-64
2021/11/15 06:47:13;;;;;;;106.63;56.35;;;;;;;2.87;75.31;95701.55;1699878;83;21581;-63
2021/11/15 06:49:40;;;;;;;79.25;49.93;;;;;;;2.90;74.84;95705.47;1699204;82;20972;-63
2021/11/15 06:52:08;;;;;;;78.45;47.10;;;;;;;2.90;74.86;95705.47;1678205;83;21041;-64
2021/11/15 06:54:34;;;;;;;88.92;49.85;;;;;;;2.88;74.71;95709.14;1693202;83;21050;-62
2021/11/15 06:57:01;;;;;;;93.78;53.60;;;;;;;2.83;74.71;95708.89;1687860;82;21314;-64
2021/11/15 06:59:27;;;;;;;101.53;54.40;;;;;;;2.84;74.93;95706.97;1659102;83;21014;-61
2021/11/15 07:01:54;;;;;;;91.08;51.83;;;;;;;2.88;75.02;95703.11;1691508;83;21140;-64
2021/11/15 07:04:20;;;;;;;83.85;45.85;;;;;;;2.91;74.65;95700.23;1672849;82;21644;-63
2021/11/15 07:06:47;;;;;;;77.45;44.85;;;;;;;2.91;74.58;95707.02;1681322;82;21042;-60
2021/11/15 07:09:13;;;;;;;91.85;52.08;;;;;;;2.94;74.55;95693.48;1678135;82;21390;-61
2021/11/15 07:11:41;;;;;;;81.80;47.80;;;;;;;2.95;74.36;95694.24;1648588;82;21135;-60
2021/11/15 07:14:09;;;;;;;84.20;49.10;;;;;;;2.98;74.51;95692.13;1676473;82;21021;-60
2021/11/15 07:16:36;;;;;;;103.25;52.03;;;;;;;3.05;74.23;95690.84;1680227;82;20993;-63
2021/11/15 07:19:04;;;;;;;105.90;55.83;;;;;;;3.03;74.16;95699.95;1673273;82;21007;-60
2021/11/15 07:21:31;;;;;;;97.70;53.83;;;;;;;3.03;74.30;95707.52;1670294;82;22119;-59
2021/11/15 07:24:00;;;;;;;85.67;44.05;;;;;;;3.11;74.67;95697.48;1675097;82;21030;-60
2021/11/15 07:26:26;;;;;;;76.62;43.42;;;;;;;3.26;74.47;95691.77;1667084;82;21680;-62
2021/11/15 07:28:53;;;;;;;96.97;51.92;;;;;;;3.31;74.11;95698.81;1675695;82;21072;-66
2021/11/15 07:31:20;;;;;;;71.97;40.92;;;;;;;3.38;74.33;95697.52;1691812;83;21397;-60
2021/11/15 07:33:46;;;;;;;72.60;41.73;;;;;;;3.52;74.09;95700.51;1695792;82;22146;-59
2021/11/15 07:36:13;;;;;;;201.12;94.83;;;;;;;3.58;73.38;95697.66;1669352;84;21114;-58
2021/11/15 07:38:40;;;;;;;132.97;68.07;;;;;;;3.56;73.27;95698.62;1663446;83;21108;-63
2021/11/15 07:41:06;;;;;;;111.35;57.10;;;;;;;3.53;73.32;95700.71;1664361;83;21074;-64
2021/11/15 07:43:33;;;;;;;93.12;56.37;;;;;;;3.51;73.66;95698.95;1635140;85;21019;-62
2021/11/15 07:46:00;;;;;;;91.85;50.20;;;;;;;3.60;73.99;95706.22;1657819;83;21159;-60
2021/11/15 07:48:28;;;;;;;102.92;51.42;;;;;;;3.73;73.81;95699.28;1696641;82;21929;-63
2021/11/15 07:50:56;;;;;;;87.27;46.95;;;;;;;3.74;73.61;95700.87;1678045;82;21032;-62
2021/11/15 07:53:24;;;;;;;95.83;50.70;;;;;;;3.79;73.50;95696.98;1688907;82;21541;-63
2021/11/15 07:55:51;;;;;;;81.35;48.45;;;;;;;3.79;73.52;95696.42;1701728;82;21065;-62
2021/11/15 07:58:18;;;;;;;67.25;39.25;;;;;;;3.84;73.96;95696.05;1684426;82;21163;-62
2021/11/15 08:00:44;;;;;;;100.65;52.88;;;;;;;3.95;73.95;95700.98;1640329;84;21129;-59
2021/11/15 08:03:11;;;;;;;83.85;48.83;;;;;;;3.99;74.07;95703.70;1652632;83;20933;-61
2021/11/15 08:05:38;;;;;;;75.60;42.50;;;;;;;4.11;74.04;95697.36;1673355;82;21042;-61
2021/11/15 08:08:05;;;;;;;71.50;37.65;;;;;;;4.10;73.93;95711.34;1668850;83;21066;-64
2021/11/15 08:10:32;;;;;;;71.72;38.48;;;;;;;4.13;74.17;95703.20;1677802;82;21121;-63
2021/11/15 08:12:58;;;;;;;62.62;37.50;;;;;;;4.25;74.39;95705.56;1689311;82;20994;-62
2021/11/15 08:15:26;;;;;;;55.70;29.40;;;;;;;4.45;74.36;95706.80;1681019;82;21619;-60
2021/11/15 08:17:56;;;;;;;39.85;23.30;;;;;;;4.58;73.76;95710.74;1673798;82;21176;-59
2021/11/15 08:20:27;;;;;;;41.20;24.35;;;;;;;4.63;74.07;95710.96;1688907;82;22320;-62
2021/11/15 08:22:57;;;;;;;41.77;24.63;;;;;;;4.76;73.99;95725.20;1670136;82;22396;-62
2021/11/15 08:25:57;;;;;;;98.78;49.05;;;;;;;4.91;73.53;95730.09;1667065;82;21043;-61
2021/11/15 08:28:28;;;;;;;109.42;48.75;;;;;;;5.01;73.34;95730.70;1652346;82;21151;-63
2021/11/15 08:30:56;;;;;;;94.17;44.38;;;;;;;5.11;72.76;95727.22;1682438;82;21454;-69
2021/11/15 08:33:23;;;;;;;81.00;43.05;;;;;;;5.12;72.52;95733.63;1689489;82;21644;-61
2021/11/15 08:35:49;;;;;;;91.55;48.85;;;;;;;5.09;72.78;95729.53;1679494;82;22273;-61
2021/11/15 08:38:44;;;;;;;105.27;54.75;;;;;;;5.10;72.77;95728.36;1666170;82;22203;-62
2021/11/15 08:41:11;;;;;;;111.80;59.55;;;;;;;5.18;72.68;95735.40;1674414;82;22464;-66
2021/11/15 08:43:38;;;;;;;78.12;43.33;;;;;;;5.25;72.59;95735.59;1660207;82;21101;-60
2021/11/15 08:46:07;;;;;;;82.72;46.70;;;;;;;5.26;71.86;95737.14;1672748;82;21026;-62
2021/11/15 08:48:35;;;;;;;126.72;62.62;;;;;;;5.14;71.91;95743.57;1675829;82;21154;-62
2021/11/15 08:51:05;;;;;;;155.35;76.97;;;;;;;5.10;72.34;95745.52;1682876;82;20919;-66
2021/11/15 08:53:32;;;;;;;100.87;49.88;;;;;;;5.10;72.52;95737.91;1693991;81;21029;-75
2021/11/15 08:55:59;;;;;;;88.78;51.98;;;;;;;5.19;72.65;95730.91;1674477;82;21054;-61
2021/11/15 08:58:25;;;;;;;88.37;53.42;;;;;;;5.24;72.44;95730.54;1677791;82;21498;-62
2021/11/15 09:00:52;;;;;;;86.45;50.30;;;;;;;5.27;72.78;95733.84;1676887;82;21142;-62
2021/11/15 09:03:19;;;;;;;76.12;48.63;;;;;;;5.41;72.75;95733.86;1686299;82;21131;-62
2021/11/15 09:05:46;;;;;;;78.47;44.75;;;;;;;5.47;71.82;95737.75;1673234;82;21051;-62
2021/11/15 09:08:13;;;;;;;71.42;40.03;;;;;;;5.42;71.83;95736.18;1677905;82;21022;-63
2021/11/15 09:10:39;;;;;;;69.75;41.02;;;;;;;5.40;71.64;95741.85;1649528;82;21076;-60
2021/11/15 09:13:06;;;;;;;73.22;40.63;;;;;;;5.45;71.67;95740.86;1674677;82;21045;-60
2021/11/15 09:15:33;;;;;;;73.72;41.10;;;;;;;5.51;71.24;95741.25;1649982;82;21578;-63
2021/11/15 09:18:00;;;;;;;89.97;49.42;;;;;;;5.48;71.34;95733.84;1677903;82;21083;-61
2021/11/15 09:20:26;;;;;;;83.40;49.48;;;;;;;5.39;71.64;95741.66;1681360;82;21062;-62
2021/11/15 09:22:53;;;;;;;94.70;55.73;;;;;;;5.32;72.11;95728.00;1680728;82;21058;-58
2021/11/15 09:25:19;;;;;;;101.25;50.15;;;;;;;5.33;72.44;95729.55;1677238;82;21068;-60
2021/11/15 09:27:46;;;;;;;93.80;57.00;;;;;;;5.37;72.16;95733.05;1677311;82;21495;-58
2021/11/15 09:30:12;;;;;;;99.97;53.85;;;;;;;5.29;72.09;95727.42;1639002;83;21026;-59
2021/11/15 09:32:42;;;;;;;92.97;48.90;;;;;;;5.26;72.29;95727.59;1680925;82;21031;-59
2021/11/15 09:35:09;;;;;;;87.90;44.70;;;;;;;5.21;72.43;95735.41;1674242;82;20991;-61
2021/11/15 09:37:35;;;;;;;82.82;40.83;;;;;;;5.19;72.79;95736.36;1679920;82;22505;-59
2021/11/15 09:40:05;;;;;;;75.72;44.10;;;;;;;5.22;72.81;95730.72;1673283;82;21026;-60
2021/11/15 09:42:32;;;;;;;93.47;48.87;;;;;;;5.29;72.65;95734.23;1675367;82;21092;-62
2021/11/15 09:45:01;;;;;;;77.55;42.20;;;;;;;5.36;72.67;95730.13;1674448;82;21032;-61
2021/11/15 09:47:27;;;;;;;77.08;46.85;;;;;;;5.44;72.42;95720.20;1683937;81;21292;-60
2021/11/15 09:49:53;;;;;;;82.97;49.50;;;;;;;5.39;72.44;95720.59;1688207;82;21103;-62
2021/11/15 09:52:20;;;;;;;89.30;51.05;;;;;;;5.39;72.53;95714.38;1666993;82;21007;-61
2021/11/15 09:54:47;;;;;;;90.83;50.85;;;;;;;5.39;72.59;95717.10;1683814;82;21046;-58
2021/11/15 09:57:15;;;;;;;105.12;52.62;;;;;;;5.40;72.46;95717.30;1686120;82;21535;-60
2021/11/15 09:59:44;;;;;;;85.10;44.53;;;;;;;5.39;72.57;95715.73;1685464;81;22360;-59
2021/11/15 10:02:11;;;;;;;79.45;42.45;;;;;;;5.46;72.56;95713.00;1638112;84;21217;-61
2021/11/15 10:04:39;;;;;;;78.72;42.10;;;;;;;5.55;72.64;95720.19;1629462;84;21494;-57
2021/11/15 10:07:05;;;;;;;78.52;42.38;;;;;;;5.60;72.47;95717.09;1594978;85;21071;-65
2021/11/15 10:09:35;;;;;;;74.17;40.25;;;;;;;5.66;72.52;95723.70;1621331;85;21128;-59
2021/11/15 10:12:12;;;;;;;77.50;40.67;;;;;;;5.72;72.29;95716.66;1615897;85;21188;-64
2021/11/15 10:15:02;;;;;;;70.22;37.25;;;;;;;5.69;72.37;95711.99;1619803;85;21144;-60
2021/11/15 10:17:44;;;;;;;68.45;35.88;;;;;;;5.75;72.61;95717.27;1629884;84;21232;-60
2021/11/15 10:20:12;;;;;;;59.93;32.73;;;;;;;5.85;72.38;95715.13;1615675;85;21509;-61
2021/11/15 10:22:40;;;;;;;58.50;34.25;;;;;;;5.94;72.40;95726.44;1690383;81;21063;-61
2021/11/15 10:25:09;;;;;;;62.53;38.20;;;;;;;6.02;72.28;95718.41;1685037;82;21162;-62
2021/11/15 10:27:37;;;;;;;70.92;37.15;;;;;;;6.09;72.23;95712.91;1677358;82;21133;-59
2021/11/15 10:30:11;;;;;;;80.80;44.75;;;;;;;6.18;72.05;95714.66;1668869;82;21078;-63
2021/11/15 10:32:43;;;;;;;85.15;46.37;;;;;;;6.24;72.04;95721.26;1669771;82;21011;-63
2021/11/15 10:35:09;;;;;;;73.37;42.40;;;;;;;6.37;71.79;95729.98;1635630;83;21132;-65
2021/11/15 10:37:37;;;;;;;95.15;46.15;;;;;;;6.50;71.38;95723.52;1645967;83;21080;-64
2021/11/15 10:40:10;;;;;;;89.00;45.12;;;;;;;6.55;70.99;95719.00;1676561;82;21166;-60
2021/11/15 10:42:40;;;;;;;;;;;;;;;6.56;71.22;95721.92;1649778;84;21475;-62
2021/11/15 10:45:17;;;;;;;62.62;37.28;;;;;;;6.72;71.30;95719.51;1613211;84;20404;-61
2021/11/15 10:47:53;;;;;;;62.70;36.63;;;;;;;6.87;70.97;95721.75;1631776;85;21511;-58
2021/11/15 10:50:45;;;;;;;69.60;40.35;;;;;;;7.00;70.81;95721.48;1631117;85;21066;-59
2021/11/15 10:53:27;;;;;;;67.50;39.10;;;;;;;7.10;70.42;95731.00;1634204;84;22659;-60
2021/11/15 10:56:10;;;;;;;65.50;38.00;;;;;;;7.24;70.32;95732.86;1568547;85;21515;-62
2021/11/15 10:58:45;;;;;;;69.97;45.33;;;;;;;7.40;69.82;95727.66;1626625;84;22389;-59
2021/11/15 11:01:14;;;;;;;63.73;38.40;;;;;;;7.51;69.01;95722.28;1671405;83;21081;-58
2021/11/15 11:03:42;;;;;;;78.22;39.33;;;;;;;7.55;68.61;95726.38;1672786;82;20934;-60
2021/11/15 11:06:12;;;;;;;78.15;40.73;;;;;;;7.48;68.75;95720.36;1668622;82;22438;-59
2021/11/15 11:08:48;;;;;;;79.50;41.98;;;;;;;7.48;68.84;95723.70;1674865;82;21059;-62
2021/11/15 11:11:32;;;;;;;71.15;43.75;;;;;;;7.60;68.77;95722.61;1656378;83;21257;-62
2021/11/15 11:14:05;;;;;;;76.50;42.95;;;;;;;7.69;68.34;95720.78;1632571;84;21050;-61
2021/11/15 11:16:48;;;;;;;82.97;42.03;;;;;;;7.71;68.29;95715.67;1646674;84;21902;-62
2021/11/15 11:19:30;;;;;;;77.55;41.48;;;;;;;7.67;67.82;95719.80;1620033;84;21197;-63
2021/11/15 11:22:08;;;;;;;63.55;38.53;;;;;;;7.61;67.98;95720.06;1638846;84;21137;-60
2021/11/15 11:24:21;;;;;;;;;;;;;;;;;;;;;
2021/11/15 11:26:55;;;;;;;66.28;40.10;;;;;;;7.54;68.15;95711.89;1670066;82;21115;-60